Terminal Aerodrome Forecast
Issued by NWS Northern Indiana

Home | Current Version | Previous Version | Graphics & Text | Print | Product List | Glossary Off
Versions: 1 2 3 4 5 6 7 8 9 10 11 12 13 14 15 16 17

000
FTUS43 KIWX 212300
TAFFWA
TAF
KFWA 212336Z 2200/2224 32007KT P6SM BKN030
     FM220300 34005KT P6SM SCT030
      TEMPO 2209/2213 4SM BR
     FM221400 32007KT P6SM SCT035=

USA.gov is the U.S. government's official web portal to all federal, state and local government web resources and services.